sensor_id;sensor_type;location;lat;lon;timestamp;temperature;humidity
23520;DHT22;11936;50.820;4.336;2023-04-15T00:01:22;13.00;99.90
23520;DHT22;11936;50.820;4.336;2023-04-15T00:03:51;13.00;99.90
23520;DHT22;11936;50.820;4.336;2023-04-15T00:06:20;12.90;99.90
23520;DHT22;11936;50.820;4.336;2023-04-15T00:08:46;13.00;99.90
23520;DHT22;11936;50.820;4.336;2023-04-15T00:11:12;13.10;99.90
23520;DHT22;11936;50.820;4.336;2023-04-15T00:13:38;13.10;99.90
23520;DHT22;11936;50.820;4.336;2023-04-15T00:16:05;13.10;99.90
23520;DHT22;11936;50.820;4.336;2023-04-15T00:18:32;13.10;99.90
23520;DHT22;11936;50.820;4.336;2023-04-15T00:20:58;13.10;99.90
23520;DHT22;11936;50.820;4.336;2023-04-15T00:23:24;13.00;99.90
23520;DHT22;11936;50.820;4.336;2023-04-15T00:25:50;13.00;99.90
23520;DHT22;11936;50.820;4.336;2023-04-15T00:28:16;12.90;99.90
23520;DHT22;11936;50.820;4.336;2023-04-15T00:30:42;13.00;99.90
23520;DHT22;11936;50.820;4.336;2023-04-15T00:33:08;13.10;99.90
23520;DHT22;11936;50.820;4.336;2023-04-15T00:35:34;12.90;99.90
23520;DHT22;11936;50.820;4.336;2023-04-15T00:38:02;12.90;99.90
23520;DHT22;11936;50.820;4.336;2023-04-15T00:40:27;13.00;99.90
23520;DHT22;11936;50.820;4.336;2023-04-15T00:42:53;13.00;99.90
23520;DHT22;11936;50.820;4.336;2023-04-15T00:45:18;12.90;99.90
23520;DHT22;11936;50.820;4.336;2023-04-15T00:47:44;12.80;99.90
23520;DHT22;11936;50.820;4.336;2023-04-15T00:50:11;12.80;99.90
23520;DHT22;11936;50.820;4.336;2023-04-15T00:52:37;12.80;99.90
23520;DHT22;11936;50.820;4.336;2023-04-15T00:55:04;12.90;99.90
23520;DHT22;11936;50.820;4.336;2023-04-15T00:57:30;12.80;99.90
23520;DHT22;11936;50.820;4.336;2023-04-15T00:59:56;12.80;99.90
23520;DHT22;11936;50.820;4.336;2023-04-15T01:02:23;12.70;99.90
23520;DHT22;11936;50.820;4.336;2023-04-15T01:04:49;12.70;99.90
23520;DHT22;11936;50.820;4.336;2023-04-15T01:07:15;12.70;99.90
23520;DHT22;11936;50.820;4.336;2023-04-15T01:09:41;12.60;99.90
23520;DHT22;11936;50.820;4.336;2023-04-15T01:12:09;12.60;99.90
23520;DHT22;11936;50.820;4.336;2023-04-15T01:14:36;12.60;99.90
23520;DHT22;11936;50.820;4.336;2023-04-15T01:17:02;12.70;99.90
23520;DHT22;11936;50.820;4.336;2023-04-15T01:19:27;12.70;99.90
23520;DHT22;11936;50.820;4.336;2023-04-15T01:21:53;12.70;99.90
23520;DHT22;11936;50.820;4.336;2023-04-15T01:24:19;12.70;99.90
23520;DHT22;11936;50.820;4.336;2023-04-15T01:26:45;12.80;99.90
23520;DHT22;11936;50.820;4.336;2023-04-15T01:29:11;12.70;99.90
23520;DHT22;11936;50.820;4.336;2023-04-15T01:31:37;12.70;99.90
23520;DHT22;11936;50.820;4.336;2023-04-15T01:34:03;12.70;99.90
23520;DHT22;11936;50.820;4.336;2023-04-15T01:36:29;12.70;99.90
23520;DHT22;11936;50.820;4.336;2023-04-15T01:38:55;12.70;99.90
23520;DHT22;11936;50.820;4.336;2023-04-15T01:41:25;12.70;99.90
23520;DHT22;11936;50.820;4.336;2023-04-15T01:43:51;12.70;99.90
23520;DHT22;11936;50.820;4.336;2023-04-15T01:46:17;12.60;99.90
23520;DHT22;11936;50.820;4.336;2023-04-15T01:48:43;12.60;99.90
23520;DHT22;11936;50.820;4.336;2023-04-15T01:51:08;12.50;99.90
23520;DHT22;11936;50.820;4.336;2023-04-15T01:53:34;12.50;99.90
23520;DHT22;11936;50.820;4.336;2023-04-15T01:56:00;12.50;99.90
23520;DHT22;11936;50.820;4.336;2023-04-15T01:58:25;12.40;99.90
23520;DHT22;11936;50.820;4.336;2023-04-15T02:00:51;12.50;99.90
23520;DHT22;11936;50.820;4.336;2023-04-15T02:03:17;12.50;99.90
23520;DHT22;11936;50.820;4.336;2023-04-15T02:05:42;12.50;99.90
23520;DHT22;11936;50.820;4.336;2023-04-15T02:08:08;12.50;99.90
23520;DHT22;11936;50.820;4.336;2023-04-15T02:10:34;12.50;99.90
23520;DHT22;11936;50.820;4.336;2023-04-15T02:12:59;12.50;99.90
23520;DHT22;11936;50.820;4.336;2023-04-15T02:15:25;12.50;99.90
23520;DHT22;11936;50.820;4.336;2023-04-15T02:17:51;12.50;99.90
23520;DHT22;11936;50.820;4.336;2023-04-15T02:20:20;12.40;99.90
23520;DHT22;11936;50.820;4.336;2023-04-15T02:22:46;12.50;99.90
23520;DHT22;11936;50.820;4.336;2023-04-15T02:25:12;12.50;99.90
23520;DHT22;11936;50.820;4.336;2023-04-15T02:27:38;12.50;99.90
23520;DHT22;11936;50.820;4.336;2023-04-15T02:30:04;12.60;99.90
23520;DHT22;11936;50.820;4.336;2023-04-15T02:32:31;12.50;99.90
23520;DHT22;11936;50.820;4.336;2023-04-15T02:35:02;12.50;99.90
23520;DHT22;11936;50.820;4.336;2023-04-15T02:37:28;12.50;99.90
23520;DHT22;11936;50.820;4.336;2023-04-15T02:39:55;12.50;99.90
23520;DHT22;11936;50.820;4.336;2023-04-15T02:42:20;12.30;99.90
23520;DHT22;11936;50.820;4.336;2023-04-15T02:44:46;12.40;99.90
23520;DHT22;11936;50.820;4.336;2023-04-15T02:47:12;12.40;99.90
23520;DHT22;11936;50.820;4.336;2023-04-15T02:49:38;12.50;99.90
23520;DHT22;11936;50.820;4.336;2023-04-15T02:52:04;12.60;99.90
23520;DHT22;11936;50.820;4.336;2023-04-15T02:54:30;12.60;99.90
23520;DHT22;11936;50.820;4.336;2023-04-15T02:56:58;12.50;99.90
23520;DHT22;11936;50.820;4.336;2023-04-15T02:59:24;12.50;99.90
23520;DHT22;11936;50.820;4.336;2023-04-15T03:01:50;12.40;99.90
23520;DHT22;11936;50.820;4.336;2023-04-15T03:04:15;12.40;99.90
23520;DHT22;11936;50.820;4.336;2023-04-15T03:06:41;12.50;99.90
23520;DHT22;11936;50.820;4.336;2023-04-15T03:09:07;12.50;99.90
23520;DHT22;11936;50.820;4.336;2023-04-15T03:11:32;12.60;99.90
23520;DHT22;11936;50.820;4.336;2023-04-15T03:13:58;12.60;99.90
23520;DHT22;11936;50.820;4.336;2023-04-15T03:16:24;12.50;99.90
23520;DHT22;11936;50.820;4.336;2023-04-15T03:18:50;12.50;99.90
23520;DHT22;11936;50.820;4.336;2023-04-15T03:21:15;12.30;99.90
23520;DHT22;11936;50.820;4.336;2023-04-15T03:23:41;12.30;99.90
23520;DHT22;11936;50.820;4.336;2023-04-15T03:26:07;12.30;99.90
23520;DHT22;11936;50.820;4.336;2023-04-15T03:28:32;12.20;99.90
23520;DHT22;11936;50.820;4.336;2023-04-15T03:30:59;12.20;99.90
23520;DHT22;11936;50.820;4.336;2023-04-15T03:33:24;12.20;99.90
23520;DHT22;11936;50.820;4.336;2023-04-15T03:35:50;12.10;99.90
23520;DHT22;11936;50.820;4.336;2023-04-15T03:38:17;12.20;99.90
23520;DHT22;11936;50.820;4.336;2023-04-15T03:40:45;12.20;99.90
23520;DHT22;11936;50.820;4.336;2023-04-15T03:43:10;12.10;99.90
23520;DHT22;11936;50.820;4.336;2023-04-15T03:45:36;12.20;99.90
23520;DHT22;11936;50.820;4.336;2023-04-15T03:48:02;12.20;99.90
23520;DHT22;11936;50.820;4.336;2023-04-15T03:50:28;12.30;99.90
23520;DHT22;11936;50.820;4.336;2023-04-15T03:52:53;12.20;99.90
23520;DHT22;11936;50.820;4.336;2023-04-15T03:55:19;12.30;99.90
23520;DHT22;11936;50.820;4.336;2023-04-15T03:57:45;12.20;99.90
23520;DHT22;11936;50.820;4.336;2023-04-15T04:00:11;12.30;99.90
23520;DHT22;11936;50.820;4.336;2023-04-15T04:02:37;12.20;99.90
23520;DHT22;11936;50.820;4.336;2023-04-15T04:05:03;12.10;99.90
23520;DHT22;11936;50.820;4.336;2023-04-15T04:07:29;12.00;99.90
23520;DHT22;11936;50.820;4.336;2023-04-15T04:09:56;11.90;99.90
23520;DHT22;11936;50.820;4.336;2023-04-15T04:12:22;11.80;99.90
23520;DHT22;11936;50.820;4.336;2023-04-15T04:14:47;11.80;99.90
23520;DHT22;11936;50.820;4.336;2023-04-15T04:17:13;11.70;99.90
23520;DHT22;11936;50.820;4.336;2023-04-15T04:19:38;11.60;99.90
23520;DHT22;11936;50.820;4.336;2023-04-15T04:22:04;11.70;99.90
23520;DHT22;11936;50.820;4.336;2023-04-15T04:24:30;11.60;99.90
23520;DHT22;11936;50.820;4.336;2023-04-15T04:26:55;11.70;99.90
23520;DHT22;11936;50.820;4.336;2023-04-15T04:29:21;11.60;99.90
23520;DHT22;11936;50.820;4.336;2023-04-15T04:31:47;11.50;99.90
23520;DHT22;11936;50.820;4.336;2023-04-15T04:34:13;11.40;99.90
23520;DHT22;11936;50.820;4.336;2023-04-15T04:36:39;11.50;99.90
23520;DHT22;11936;50.820;4.336;2023-04-15T04:39:04;11.60;99.90
23520;DHT22;11936;50.820;4.336;2023-04-15T04:41:30;11.60;99.90
23520;DHT22;11936;50.820;4.336;2023-04-15T04:43:56;11.70;99.90
23520;DHT22;11936;50.820;4.336;2023-04-15T04:46:22;11.60;99.90
23520;DHT22;11936;50.820;4.336;2023-04-15T04:48:48;11.60;99.90
23520;DHT22;11936;50.820;4.336;2023-04-15T04:51:13;11.70;99.90
23520;DHT22;11936;50.820;4.336;2023-04-15T04:53:39;11.80;99.90
23520;DHT22;11936;50.820;4.336;2023-04-15T04:56:05;11.90;99.90
23520;DHT22;11936;50.820;4.336;2023-04-15T04:58:30;11.90;99.90
23520;DHT22;11936;50.820;4.336;2023-04-15T05:00:56;11.90;99.90
23520;DHT22;11936;50.820;4.336;2023-04-15T05:03:22;11.90;99.90
23520;DHT22;11936;50.820;4.336;2023-04-15T05:05:48;11.90;99.90
23520;DHT22;11936;50.820;4.336;2023-04-15T05:08:14;12.00;99.90
23520;DHT22;11936;50.820;4.336;2023-04-15T05:10:40;11.90;99.90
23520;DHT22;11936;50.820;4.336;2023-04-15T05:13:06;11.90;99.90
23520;DHT22;11936;50.820;4.336;2023-04-15T05:15:31;11.80;99.90
23520;DHT22;11936;50.820;4.336;2023-04-15T05:17:59;11.80;99.90
23520;DHT22;11936;50.820;4.336;2023-04-15T05:20:24;11.80;99.90
23520;DHT22;11936;50.820;4.336;2023-04-15T05:22:50;11.80;99.90
23520;DHT22;11936;50.820;4.336;2023-04-15T05:25:16;11.80;99.90
23520;DHT22;11936;50.820;4.336;2023-04-15T05:27:42;11.70;99.90
23520;DHT22;11936;50.820;4.336;2023-04-15T05:30:08;11.80;99.90
23520;DHT22;11936;50.820;4.336;2023-04-15T05:32:34;11.80;99.90
23520;DHT22;11936;50.820;4.336;2023-04-15T05:35:02;11.80;99.90
23520;DHT22;11936;50.820;4.336;2023-04-15T05:37:28;11.90;99.90
23520;DHT22;11936;50.820;4.336;2023-04-15T05:39:53;11.90;99.90
23520;DHT22;11936;50.820;4.336;2023-04-15T05:42:19;11.90;99.90
23520;DHT22;11936;50.820;4.336;2023-04-15T05:44:44;12.00;99.90
23520;DHT22;11936;50.820;4.336;2023-04-15T05:47:11;11.90;99.90
23520;DHT22;11936;50.820;4.336;2023-04-15T05:49:37;11.80;99.90
23520;DHT22;11936;50.820;4.336;2023-04-15T05:52:02;11.80;99.90
23520;DHT22;11936;50.820;4.336;2023-04-15T05:54:28;11.90;99.90
23520;DHT22;11936;50.820;4.336;2023-04-15T05:56:54;12.00;99.90
23520;DHT22;11936;50.820;4.336;2023-04-15T05:59:20;11.90;99.90
23520;DHT22;11936;50.820;4.336;2023-04-15T06:01:46;11.90;99.90
23520;DHT22;11936;50.820;4.336;2023-04-15T06:04:12;11.90;99.90
23520;DHT22;11936;50.820;4.336;2023-04-15T06:06:37;11.90;99.90
23520;DHT22;11936;50.820;4.336;2023-04-15T06:09:03;11.90;99.90
23520;DHT22;11936;50.820;4.336;2023-04-15T06:11:29;12.00;99.90
23520;DHT22;11936;50.820;4.336;2023-04-15T06:13:55;12.10;99.90
23520;DHT22;11936;50.820;4.336;2023-04-15T06:16:21;12.10;99.90
23520;DHT22;11936;50.820;4.336;2023-04-15T06:18:47;12.20;99.90
23520;DHT22;11936;50.820;4.336;2023-04-15T06:21:13;12.40;99.90
23520;DHT22;11936;50.820;4.336;2023-04-15T06:23:39;12.40;99.90
23520;DHT22;11936;50.820;4.336;2023-04-15T06:26:05;12.30;99.90
23520;DHT22;11936;50.820;4.336;2023-04-15T06:28:31;12.40;99.90
23520;DHT22;11936;50.820;4.336;2023-04-15T06:30:57;12.30;99.90
23520;DHT22;11936;50.820;4.336;2023-04-15T06:33:22;12.40;99.90
23520;DHT22;11936;50.820;4.336;2023-04-15T06:35:48;12.40;99.90
23520;DHT22;11936;50.820;4.336;2023-04-15T06:38:14;12.40;99.90
23520;DHT22;11936;50.820;4.336;2023-04-15T06:40:40;12.50;99.90
23520;DHT22;11936;50.820;4.336;2023-04-15T06:43:06;12.40;99.90
23520;DHT22;11936;50.820;4.336;2023-04-15T06:45:32;12.40;99.90
23520;DHT22;11936;50.820;4.336;2023-04-15T06:47:58;12.50;99.90
23520;DHT22;11936;50.820;4.336;2023-04-15T06:50:23;12.40;99.90
23520;DHT22;11936;50.820;4.336;2023-04-15T06:52:49;12.40;99.90
23520;DHT22;11936;50.820;4.336;2023-04-15T06:55:15;12.50;99.90
23520;DHT22;11936;50.820;4.336;2023-04-15T06:57:40;12.60;99.90
23520;DHT22;11936;50.820;4.336;2023-04-15T07:00:07;12.70;99.90
23520;DHT22;11936;50.820;4.336;2023-04-15T07:02:32;12.70;99.90
23520;DHT22;11936;50.820;4.336;2023-04-15T07:04:58;12.70;99.90
23520;DHT22;11936;50.820;4.336;2023-04-15T07:07:24;12.80;99.90
23520;DHT22;11936;50.820;4.336;2023-04-15T07:09:50;12.90;99.90
23520;DHT22;11936;50.820;4.336;2023-04-15T07:12:16;12.80;99.90
23520;DHT22;11936;50.820;4.336;2023-04-15T07:14:42;12.90;99.90
23520;DHT22;11936;50.820;4.336;2023-04-15T07:17:08;13.00;99.90
23520;DHT22;11936;50.820;4.336;2023-04-15T07:19:34;13.00;99.90
23520;DHT22;11936;50.820;4.336;2023-04-15T07:22:00;13.10;99.90
23520;DHT22;11936;50.820;4.336;2023-04-15T07:24:25;13.20;99.90
23520;DHT22;11936;50.820;4.336;2023-04-15T07:26:54;13.20;99.90
23520;DHT22;11936;50.820;4.336;2023-04-15T07:29:23;13.20;99.90
23520;DHT22;11936;50.820;4.336;2023-04-15T07:31:48;13.20;99.90
23520;DHT22;11936;50.820;4.336;2023-04-15T07:34:15;13.30;99.90
23520;DHT22;11936;50.820;4.336;2023-04-15T07:36:41;13.30;99.90
23520;DHT22;11936;50.820;4.336;2023-04-15T07:39:07;13.30;99.90
23520;DHT22;11936;50.820;4.336;2023-04-15T07:41:32;13.30;99.90
23520;DHT22;11936;50.820;4.336;2023-04-15T07:43:58;13.30;99.90
23520;DHT22;11936;50.820;4.336;2023-04-15T07:46:24;13.30;99.90
23520;DHT22;11936;50.820;4.336;2023-04-15T07:48:51;13.30;99.90
23520;DHT22;11936;50.820;4.336;2023-04-15T07:51:18;13.30;99.90
23520;DHT22;11936;50.820;4.336;2023-04-15T07:53:45;13.20;99.90
23520;DHT22;11936;50.820;4.336;2023-04-15T07:56:11;13.10;99.90
23520;DHT22;11936;50.820;4.336;2023-04-15T07:58:37;13.10;99.90
23520;DHT22;11936;50.820;4.336;2023-04-15T08:01:03;13.10;99.90
23520;DHT22;11936;50.820;4.336;2023-04-15T08:03:29;12.90;99.90
23520;DHT22;11936;50.820;4.336;2023-04-15T08:05:54;12.70;99.90
23520;DHT22;11936;50.820;4.336;2023-04-15T08:08:20;12.60;99.90
23520;DHT22;11936;50.820;4.336;2023-04-15T08:10:46;12.60;99.90
23520;DHT22;11936;50.820;4.336;2023-04-15T08:13:12;12.50;99.90
23520;DHT22;11936;50.820;4.336;2023-04-15T08:15:37;12.60;99.90
23520;DHT22;11936;50.820;4.336;2023-04-15T08:18:03;12.50;99.90
23520;DHT22;11936;50.820;4.336;2023-04-15T08:20:29;12.60;99.90
23520;DHT22;11936;50.820;4.336;2023-04-15T08:22:55;12.70;99.90
23520;DHT22;11936;50.820;4.336;2023-04-15T08:25:20;12.80;99.90
23520;DHT22;11936;50.820;4.336;2023-04-15T08:27:46;12.70;99.90
23520;DHT22;11936;50.820;4.336;2023-04-15T08:30:12;12.70;99.90
23520;DHT22;11936;50.820;4.336;2023-04-15T08:32:38;12.60;99.90
23520;DHT22;11936;50.820;4.336;2023-04-15T08:35:04;12.60;99.90
23520;DHT22;11936;50.820;4.336;2023-04-15T08:37:30;12.70;99.90
23520;DHT22;11936;50.820;4.336;2023-04-15T08:39:55;13.00;99.90
23520;DHT22;11936;50.820;4.336;2023-04-15T08:42:30;13.00;99.90
23520;DHT22;11936;50.820;4.336;2023-04-15T08:44:58;13.10;99.90
23520;DHT22;11936;50.820;4.336;2023-04-15T08:47:25;13.10;99.90
23520;DHT22;11936;50.820;4.336;2023-04-15T08:49:54;12.90;99.90
23520;DHT22;11936;50.820;4.336;2023-04-15T08:52:26;13.00;99.90
23520;DHT22;11936;50.820;4.336;2023-04-15T08:54:56;13.10;99.90
23520;DHT22;11936;50.820;4.336;2023-04-15T08:57:26;13.10;99.90
23520;DHT22;11936;50.820;4.336;2023-04-15T08:59:56;13.10;99.90
23520;DHT22;11936;50.820;4.336;2023-04-15T09:02:23;13.10;99.90
23520;DHT22;11936;50.820;4.336;2023-04-15T09:04:50;13.30;99.90
23520;DHT22;11936;50.820;4.336;2023-04-15T09:07:15;13.50;99.90
23520;DHT22;11936;50.820;4.336;2023-04-15T09:09:41;13.60;99.90
23520;DHT22;11936;50.820;4.336;2023-04-15T09:12:08;13.80;99.90
23520;DHT22;11936;50.820;4.336;2023-04-15T09:14:34;13.90;99.90
23520;DHT22;11936;50.820;4.336;2023-04-15T09:17:01;13.80;99.90
23520;DHT22;11936;50.820;4.336;2023-04-15T09:19:27;13.80;99.90
23520;DHT22;11936;50.820;4.336;2023-04-15T09:21:55;13.80;99.90
23520;DHT22;11936;50.820;4.336;2023-04-15T09:24:24;13.90;99.90
23520;DHT22;11936;50.820;4.336;2023-04-15T09:26:52;14.00;99.90
23520;DHT22;11936;50.820;4.336;2023-04-15T09:29:19;14.10;99.90
23520;DHT22;11936;50.820;4.336;2023-04-15T09:31:45;14.10;99.90
23520;DHT22;11936;50.820;4.336;2023-04-15T09:34:11;14.10;99.90
23520;DHT22;11936;50.820;4.336;2023-04-15T09:39:12;14.20;99.90
23520;DHT22;11936;50.820;4.336;2023-04-15T09:41:38;14.20;99.90
23520;DHT22;11936;50.820;4.336;2023-04-15T09:44:03;14.30;99.90
23520;DHT22;11936;50.820;4.336;2023-04-15T09:46:45;14.50;99.90
23520;DHT22;11936;50.820;4.336;2023-04-15T09:49:11;14.50;99.10
23520;DHT22;11936;50.820;4.336;2023-04-15T09:51:37;14.50;98.00
23520;DHT22;11936;50.820;4.336;2023-04-15T09:54:03;14.50;98.80
23520;DHT22;11936;50.820;4.336;2023-04-15T09:56:36;14.70;98.40
23520;DHT22;11936;50.820;4.336;2023-04-15T09:59:04;14.80;98.20
23520;DHT22;11936;50.820;4.336;2023-04-15T10:01:30;14.90;97.30
23520;DHT22;11936;50.820;4.336;2023-04-15T10:03:57;14.80;98.50
23520;DHT22;11936;50.820;4.336;2023-04-15T10:06:26;14.80;97.30
23520;DHT22;11936;50.820;4.336;2023-04-15T10:08:53;14.80;97.10
23520;DHT22;11936;50.820;4.336;2023-04-15T10:11:19;14.80;96.70
23520;DHT22;11936;50.820;4.336;2023-04-15T10:13:46;14.80;97.70
23520;DHT22;11936;50.820;4.336;2023-04-15T10:16:15;14.80;96.80
23520;DHT22;11936;50.820;4.336;2023-04-15T10:18:45;14.80;96.60
23520;DHT22;11936;50.820;4.336;2023-04-15T10:21:12;14.80;97.40
23520;DHT22;11936;50.820;4.336;2023-04-15T10:23:44;14.80;97.80
23520;DHT22;11936;50.820;4.336;2023-04-15T10:26:10;14.80;98.60
23520;DHT22;11936;50.820;4.336;2023-04-15T10:28:37;14.90;98.70
23520;DHT22;11936;50.820;4.336;2023-04-15T10:31:03;15.00;98.50
23520;DHT22;11936;50.820;4.336;2023-04-15T10:33:30;15.00;97.70
23520;DHT22;11936;50.820;4.336;2023-04-15T10:35:56;15.10;97.30
23520;DHT22;11936;50.820;4.336;2023-04-15T10:38:41;15.20;98.10
23520;DHT22;11936;50.820;4.336;2023-04-15T10:41:21;15.10;97.00
23520;DHT22;11936;50.820;4.336;2023-04-15T10:49:12;15.20;98.20
23520;DHT22;11936;50.820;4.336;2023-04-15T10:51:40;15.20;96.00
23520;DHT22;11936;50.820;4.336;2023-04-15T10:54:29;15.20;96.00
23520;DHT22;11936;50.820;4.336;2023-04-15T11:05:03;15.20;95.00
23520;DHT22;11936;50.820;4.336;2023-04-15T11:07:54;15.20;94.50
23520;DHT22;11936;50.820;4.336;2023-04-15T11:13:14;15.20;93.90
23520;DHT22;11936;50.820;4.336;2023-04-15T11:15:42;15.30;93.20
23520;DHT22;11936;50.820;4.336;2023-04-15T11:18:13;15.30;90.10
23520;DHT22;11936;50.820;4.336;2023-04-15T11:20:41;15.30;88.70
23520;DHT22;11936;50.820;4.336;2023-04-15T11:23:08;15.30;86.80
23520;DHT22;11936;50.820;4.336;2023-04-15T11:25:34;15.30;87.50
23520;DHT22;11936;50.820;4.336;2023-04-15T11:28:03;15.30;86.70
23520;DHT22;11936;50.820;4.336;2023-04-15T11:30:31;15.30;88.90
23520;DHT22;11936;50.820;4.336;2023-04-15T11:32:59;15.40;88.90
23520;DHT22;11936;50.820;4.336;2023-04-15T11:35:25;15.50;90.40
23520;DHT22;11936;50.820;4.336;2023-04-15T11:37:51;15.40;90.60
23520;DHT22;11936;50.820;4.336;2023-04-15T11:40:22;15.60;90.60
23520;DHT22;11936;50.820;4.336;2023-04-15T11:43:11;15.60;90.40
23520;DHT22;11936;50.820;4.336;2023-04-15T11:45:55;15.60;88.30
23520;DHT22;11936;50.820;4.336;2023-04-15T11:48:24;15.50;90.70
23520;DHT22;11936;50.820;4.336;2023-04-15T11:51:01;15.60;91.90
23520;DHT22;11936;50.820;4.336;2023-04-15T11:53:38;15.70;88.40
23520;DHT22;11936;50.820;4.336;2023-04-15T11:56:06;15.70;85.30
23520;DHT22;11936;50.820;4.336;2023-04-15T11:58:34;15.70;84.10
23520;DHT22;11936;50.820;4.336;2023-04-15T12:01:01;15.60;75.90
23520;DHT22;11936;50.820;4.336;2023-04-15T12:03:39;15.70;79.50
23520;DHT22;11936;50.820;4.336;2023-04-15T12:11:33;15.60;83.00
23520;DHT22;11936;50.820;4.336;2023-04-15T12:14:09;15.60;81.80
23520;DHT22;11936;50.820;4.336;2023-04-15T12:16:46;15.70;78.20
23520;DHT22;11936;50.820;4.336;2023-04-15T12:19:14;15.70;76.40
23520;DHT22;11936;50.820;4.336;2023-04-15T12:21:43;15.70;73.90
23520;DHT22;11936;50.820;4.336;2023-04-15T12:24:10;15.60;74.70
23520;DHT22;11936;50.820;4.336;2023-04-15T12:26:52;15.50;75.40
23520;DHT22;11936;50.820;4.336;2023-04-15T12:29:19;15.60;78.00
23520;DHT22;11936;50.820;4.336;2023-04-15T12:31:57;15.60;77.00
23520;DHT22;11936;50.820;4.336;2023-04-15T12:34:31;15.60;79.60
23520;DHT22;11936;50.820;4.336;2023-04-15T12:36:57;15.70;79.70
23520;DHT22;11936;50.820;4.336;2023-04-15T12:39:25;15.80;80.50
23520;DHT22;11936;50.820;4.336;2023-04-15T12:41:51;15.90;77.90
23520;DHT22;11936;50.820;4.336;2023-04-15T12:44:18;15.90;77.30
23520;DHT22;11936;50.820;4.336;2023-04-15T12:46:44;15.90;79.60
23520;DHT22;11936;50.820;4.336;2023-04-15T12:49:10;15.80;74.10
23520;DHT22;11936;50.820;4.336;2023-04-15T12:51:36;15.60;69.10
23520;DHT22;11936;50.820;4.336;2023-04-15T12:54:01;15.60;72.90
23520;DHT22;11936;50.820;4.336;2023-04-15T12:56:27;15.80;75.30
23520;DHT22;11936;50.820;4.336;2023-04-15T12:58:53;15.90;77.90
23520;DHT22;11936;50.820;4.336;2023-04-15T13:01:19;16.00;75.60
23520;DHT22;11936;50.820;4.336;2023-04-15T13:03:45;15.90;75.30
23520;DHT22;11936;50.820;4.336;2023-04-15T13:06:10;15.90;71.20
23520;DHT22;11936;50.820;4.336;2023-04-15T13:08:36;15.80;70.50
23520;DHT22;11936;50.820;4.336;2023-04-15T13:11:02;15.80;69.40
23520;DHT22;11936;50.820;4.336;2023-04-15T13:13:28;15.90;71.40
23520;DHT22;11936;50.820;4.336;2023-04-15T13:15:56;16.00;71.20
23520;DHT22;11936;50.820;4.336;2023-04-15T13:18:22;15.90;73.10
23520;DHT22;11936;50.820;4.336;2023-04-15T13:20:48;15.90;72.90
23520;DHT22;11936;50.820;4.336;2023-04-15T13:23:14;16.00;74.10
23520;DHT22;11936;50.820;4.336;2023-04-15T13:25:39;16.00;74.70
23520;DHT22;11936;50.820;4.336;2023-04-15T13:28:05;16.20;75.40
23520;DHT22;11936;50.820;4.336;2023-04-15T13:30:31;16.30;74.70
23520;DHT22;11936;50.820;4.336;2023-04-15T13:32:56;16.30;75.80
23520;DHT22;11936;50.820;4.336;2023-04-15T13:35:22;16.30;78.10
23520;DHT22;11936;50.820;4.336;2023-04-15T13:37:48;16.30;79.60
23520;DHT22;11936;50.820;4.336;2023-04-15T13:40:13;16.20;80.30
23520;DHT22;11936;50.820;4.336;2023-04-15T13:42:41;16.10;79.90
23520;DHT22;11936;50.820;4.336;2023-04-15T13:45:07;15.90;80.40
23520;DHT22;11936;50.820;4.336;2023-04-15T13:47:33;15.90;83.10
23520;DHT22;11936;50.820;4.336;2023-04-15T13:49:58;15.90;78.80
23520;DHT22;11936;50.820;4.336;2023-04-15T13:52:24;16.00;79.70
23520;DHT22;11936;50.820;4.336;2023-04-15T13:54:50;16.00;77.30
23520;DHT22;11936;50.820;4.336;2023-04-15T13:57:16;16.00;80.10
23520;DHT22;11936;50.820;4.336;2023-04-15T13:59:42;16.10;78.80
23520;DHT22;11936;50.820;4.336;2023-04-15T14:02:08;16.30;80.30
23520;DHT22;11936;50.820;4.336;2023-04-15T14:04:34;16.20;78.40
23520;DHT22;11936;50.820;4.336;2023-04-15T14:06:59;16.20;77.70
23520;DHT22;11936;50.820;4.336;2023-04-15T14:09:25;16.40;80.60
23520;DHT22;11936;50.820;4.336;2023-04-15T14:11:51;16.50;77.30
23520;DHT22;11936;50.820;4.336;2023-04-15T14:14:16;16.70;76.70
23520;DHT22;11936;50.820;4.336;2023-04-15T14:16:42;16.60;76.30
23520;DHT22;11936;50.820;4.336;2023-04-15T14:19:08;16.20;77.70
23520;DHT22;11936;50.820;4.336;2023-04-15T14:21:33;15.90;79.00
23520;DHT22;11936;50.820;4.336;2023-04-15T14:23:59;15.70;80.20
23520;DHT22;11936;50.820;4.336;2023-04-15T14:26:25;15.90;80.50
23520;DHT22;11936;50.820;4.336;2023-04-15T14:28:50;15.90;82.80
23520;DHT22;11936;50.820;4.336;2023-04-15T14:31:17;16.00;81.40
23520;DHT22;11936;50.820;4.336;2023-04-15T14:33:43;16.10;81.20
23520;DHT22;11936;50.820;4.336;2023-04-15T14:36:09;16.10;81.30
23520;DHT22;11936;50.820;4.336;2023-04-15T14:38:35;15.90;80.80
23520;DHT22;11936;50.820;4.336;2023-04-15T14:41:07;15.90;79.80
23520;DHT22;11936;50.820;4.336;2023-04-15T14:43:34;15.70;80.10
23520;DHT22;11936;50.820;4.336;2023-04-15T14:46:00;15.70;77.30
23520;DHT22;11936;50.820;4.336;2023-04-15T14:48:26;15.60;77.70
23520;DHT22;11936;50.820;4.336;2023-04-15T14:50:52;15.70;77.40
23520;DHT22;11936;50.820;4.336;2023-04-15T14:53:17;15.90;80.90
23520;DHT22;11936;50.820;4.336;2023-04-15T14:55:43;16.20;78.30
23520;DHT22;11936;50.820;4.336;2023-04-15T14:58:10;16.30;77.80
23520;DHT22;11936;50.820;4.336;2023-04-15T15:00:38;16.50;78.90
23520;DHT22;11936;50.820;4.336;2023-04-15T15:03:10;16.50;78.90
23520;DHT22;11936;50.820;4.336;2023-04-15T15:05:43;16.50;80.90
23520;DHT22;11936;50.820;4.336;2023-04-15T15:08:09;16.70;81.20
23520;DHT22;11936;50.820;4.336;2023-04-15T15:10:35;16.90;82.30
23520;DHT22;11936;50.820;4.336;2023-04-15T15:13:06;17.00;80.40
23520;DHT22;11936;50.820;4.336;2023-04-15T15:15:33;16.90;80.80
23520;DHT22;11936;50.820;4.336;2023-04-15T15:17:59;16.60;82.50
23520;DHT22;11936;50.820;4.336;2023-04-15T15:20:25;16.70;83.10
23520;DHT22;11936;50.820;4.336;2023-04-15T15:22:51;16.80;83.50
23520;DHT22;11936;50.820;4.336;2023-04-15T15:25:17;16.60;81.80
23520;DHT22;11936;50.820;4.336;2023-04-15T15:27:42;16.60;83.00
23520;DHT22;11936;50.820;4.336;2023-04-15T15:30:09;16.50;84.90
23520;DHT22;11936;50.820;4.336;2023-04-15T15:32:35;16.10;89.00
23520;DHT22;11936;50.820;4.336;2023-04-15T15:35:00;16.20;90.50
23520;DHT22;11936;50.820;4.336;2023-04-15T15:37:26;16.50;91.10
23520;DHT22;11936;50.820;4.336;2023-04-15T15:39:52;16.60;91.50
23520;DHT22;11936;50.820;4.336;2023-04-15T15:42:21;16.50;91.40
23520;DHT22;11936;50.820;4.336;2023-04-15T15:44:48;16.50;91.60
23520;DHT22;11936;50.820;4.336;2023-04-15T15:47:23;16.80;92.60
23520;DHT22;11936;50.820;4.336;2023-04-15T15:49:48;16.80;92.80
23520;DHT22;11936;50.820;4.336;2023-04-15T15:52:14;16.40;93.30